sensor_id;sensor_type;location;lat;lon;timestamp;temperature;humidity
5723;DHT22;2886;49.722;8.612;2023-05-07T00:00:33;16.20;99.90
5723;DHT22;2886;49.722;8.612;2023-05-07T00:02:59;16.10;99.90
5723;DHT22;2886;49.722;8.612;2023-05-07T00:05:25;16.00;99.90
5723;DHT22;2886;49.722;8.612;2023-05-07T00:07:51;16.00;99.90
5723;DHT22;2886;49.722;8.612;2023-05-07T00:10:18;15.90;99.90
5723;DHT22;2886;49.722;8.612;2023-05-07T00:12:44;15.90;99.90
5723;DHT22;2886;49.722;8.612;2023-05-07T00:15:10;15.90;99.90
5723;DHT22;2886;49.722;8.612;2023-05-07T00:17:36;15.90;99.90
5723;DHT22;2886;49.722;8.612;2023-05-07T00:20:03;16.00;99.90
5723;DHT22;2886;49.722;8.612;2023-05-07T00:22:30;16.00;99.90
5723;DHT22;2886;49.722;8.612;2023-05-07T00:24:57;16.00;99.90
5723;DHT22;2886;49.722;8.612;2023-05-07T00:27:23;16.00;99.90
5723;DHT22;2886;49.722;8.612;2023-05-07T00:29:48;16.00;99.90
5723;DHT22;2886;49.722;8.612;2023-05-07T00:32:14;16.00;99.90
5723;DHT22;2886;49.722;8.612;2023-05-07T00:34:40;16.00;99.90
5723;DHT22;2886;49.722;8.612;2023-05-07T00:37:06;16.00;99.90
5723;DHT22;2886;49.722;8.612;2023-05-07T00:39:33;15.90;99.90
5723;DHT22;2886;49.722;8.612;2023-05-07T00:41:59;15.90;99.90
5723;DHT22;2886;49.722;8.612;2023-05-07T00:44:26;15.90;99.90
5723;DHT22;2886;49.722;8.612;2023-05-07T00:46:51;15.90;99.90
5723;DHT22;2886;49.722;8.612;2023-05-07T00:49:18;15.80;99.90
5723;DHT22;2886;49.722;8.612;2023-05-07T00:51:45;15.80;99.90
5723;DHT22;2886;49.722;8.612;2023-05-07T00:54:11;15.80;99.90
5723;DHT22;2886;49.722;8.612;2023-05-07T00:56:36;15.70;99.90
5723;DHT22;2886;49.722;8.612;2023-05-07T00:59:03;15.80;99.90
5723;DHT22;2886;49.722;8.612;2023-05-07T01:01:29;15.70;99.90
5723;DHT22;2886;49.722;8.612;2023-05-07T01:03:55;15.70;99.90
5723;DHT22;2886;49.722;8.612;2023-05-07T01:06:21;15.70;99.90
5723;DHT22;2886;49.722;8.612;2023-05-07T01:08:48;15.70;99.90
5723;DHT22;2886;49.722;8.612;2023-05-07T01:11:16;15.60;99.90
5723;DHT22;2886;49.722;8.612;2023-05-07T01:13:42;15.60;99.90
5723;DHT22;2886;49.722;8.612;2023-05-07T01:16:09;15.50;99.90
5723;DHT22;2886;49.722;8.612;2023-05-07T01:18:35;15.40;99.90
5723;DHT22;2886;49.722;8.612;2023-05-07T01:21:01;15.40;99.90
5723;DHT22;2886;49.722;8.612;2023-05-07T01:23:29;15.30;99.90
5723;DHT22;2886;49.722;8.612;2023-05-07T01:25:56;15.20;99.90
5723;DHT22;2886;49.722;8.612;2023-05-07T01:28:21;15.20;99.90
5723;DHT22;2886;49.722;8.612;2023-05-07T01:30:51;15.10;99.90
5723;DHT22;2886;49.722;8.612;2023-05-07T01:33:20;15.00;99.90
5723;DHT22;2886;49.722;8.612;2023-05-07T01:35:49;14.90;99.90
5723;DHT22;2886;49.722;8.612;2023-05-07T01:38:16;14.90;99.90
5723;DHT22;2886;49.722;8.612;2023-05-07T01:40:43;14.80;99.90
5723;DHT22;2886;49.722;8.612;2023-05-07T01:43:09;14.80;99.90
5723;DHT22;2886;49.722;8.612;2023-05-07T01:45:35;14.70;99.90
5723;DHT22;2886;49.722;8.612;2023-05-07T01:48:02;14.70;99.90
5723;DHT22;2886;49.722;8.612;2023-05-07T01:50:29;14.70;99.90
5723;DHT22;2886;49.722;8.612;2023-05-07T01:52:55;14.60;99.90
5723;DHT22;2886;49.722;8.612;2023-05-07T01:55:21;14.60;99.90
5723;DHT22;2886;49.722;8.612;2023-05-07T01:57:47;14.50;99.90
5723;DHT22;2886;49.722;8.612;2023-05-07T02:00:12;14.50;99.90
5723;DHT22;2886;49.722;8.612;2023-05-07T02:02:38;14.50;99.90
5723;DHT22;2886;49.722;8.612;2023-05-07T02:05:04;14.50;99.90
5723;DHT22;2886;49.722;8.612;2023-05-07T02:07:30;14.50;99.90
5723;DHT22;2886;49.722;8.612;2023-05-07T02:09:56;14.40;99.90
5723;DHT22;2886;49.722;8.612;2023-05-07T02:12:22;14.40;99.90
5723;DHT22;2886;49.722;8.612;2023-05-07T02:14:48;14.30;99.90
5723;DHT22;2886;49.722;8.612;2023-05-07T02:17:13;14.30;99.90
5723;DHT22;2886;49.722;8.612;2023-05-07T02:19:39;14.20;99.90
5723;DHT22;2886;49.722;8.612;2023-05-07T02:22:05;14.20;99.90
5723;DHT22;2886;49.722;8.612;2023-05-07T02:24:30;14.20;99.90
5723;DHT22;2886;49.722;8.612;2023-05-07T02:26:56;14.20;99.90
5723;DHT22;2886;49.722;8.612;2023-05-07T02:29:22;14.20;99.90
5723;DHT22;2886;49.722;8.612;2023-05-07T02:31:47;14.10;99.90
5723;DHT22;2886;49.722;8.612;2023-05-07T02:34:16;14.10;99.90
5723;DHT22;2886;49.722;8.612;2023-05-07T02:36:42;14.10;99.90
5723;DHT22;2886;49.722;8.612;2023-05-07T02:39:08;14.10;99.90
5723;DHT22;2886;49.722;8.612;2023-05-07T02:41:33;14.10;99.90
5723;DHT22;2886;49.722;8.612;2023-05-07T02:44:00;14.10;99.90
5723;DHT22;2886;49.722;8.612;2023-05-07T02:46:26;14.00;99.90
5723;DHT22;2886;49.722;8.612;2023-05-07T02:48:51;14.00;99.90
5723;DHT22;2886;49.722;8.612;2023-05-07T02:51:21;14.00;99.90
5723;DHT22;2886;49.722;8.612;2023-05-07T02:53:47;14.00;99.90
5723;DHT22;2886;49.722;8.612;2023-05-07T02:56:13;14.00;99.90
5723;DHT22;2886;49.722;8.612;2023-05-07T02:58:38;14.00;99.90
5723;DHT22;2886;49.722;8.612;2023-05-07T03:01:10;13.90;99.90
5723;DHT22;2886;49.722;8.612;2023-05-07T03:03:35;13.90;99.90
5723;DHT22;2886;49.722;8.612;2023-05-07T03:06:01;13.90;99.90
5723;DHT22;2886;49.722;8.612;2023-05-07T03:08:27;13.80;99.90
5723;DHT22;2886;49.722;8.612;2023-05-07T03:10:53;13.80;99.90
5723;DHT22;2886;49.722;8.612;2023-05-07T03:13:18;13.80;99.90
5723;DHT22;2886;49.722;8.612;2023-05-07T03:15:44;13.70;99.90
5723;DHT22;2886;49.722;8.612;2023-05-07T03:18:10;13.70;99.90
5723;DHT22;2886;49.722;8.612;2023-05-07T03:20:36;13.70;99.90
5723;DHT22;2886;49.722;8.612;2023-05-07T03:23:02;13.60;99.90
5723;DHT22;2886;49.722;8.612;2023-05-07T03:25:28;13.60;99.90
5723;DHT22;2886;49.722;8.612;2023-05-07T03:27:55;13.60;99.90
5723;DHT22;2886;49.722;8.612;2023-05-07T03:30:21;13.60;99.90
5723;DHT22;2886;49.722;8.612;2023-05-07T03:32:47;13.50;99.90
5723;DHT22;2886;49.722;8.612;2023-05-07T03:35:13;13.50;99.90
5723;DHT22;2886;49.722;8.612;2023-05-07T03:37:39;13.50;99.90
5723;DHT22;2886;49.722;8.612;2023-05-07T03:40:06;13.50;99.90
5723;DHT22;2886;49.722;8.612;2023-05-07T03:42:32;13.50;99.90
5723;DHT22;2886;49.722;8.612;2023-05-07T03:44:57;13.50;99.90
5723;DHT22;2886;49.722;8.612;2023-05-07T03:47:23;13.50;99.90
5723;DHT22;2886;49.722;8.612;2023-05-07T03:49:49;13.50;99.90
5723;DHT22;2886;49.722;8.612;2023-05-07T03:52:15;13.50;99.90
5723;DHT22;2886;49.722;8.612;2023-05-07T03:54:41;13.50;99.90
5723;DHT22;2886;49.722;8.612;2023-05-07T03:57:06;13.50;99.90
5723;DHT22;2886;49.722;8.612;2023-05-07T03:59:32;13.50;99.90
5723;DHT22;2886;49.722;8.612;2023-05-07T04:01:59;13.50;99.90
5723;DHT22;2886;49.722;8.612;2023-05-07T04:04:25;13.50;99.90
5723;DHT22;2886;49.722;8.612;2023-05-07T04:06:50;13.50;99.90
5723;DHT22;2886;49.722;8.612;2023-05-07T04:09:16;13.50;99.90
5723;DHT22;2886;49.722;8.612;2023-05-07T04:11:42;13.50;99.90
5723;DHT22;2886;49.722;8.612;2023-05-07T04:14:08;13.60;99.90
5723;DHT22;2886;49.722;8.612;2023-05-07T04:16:34;13.60;99.90
5723;DHT22;2886;49.722;8.612;2023-05-07T04:19:00;13.70;99.90
5723;DHT22;2886;49.722;8.612;2023-05-07T04:21:26;13.70;99.90
5723;DHT22;2886;49.722;8.612;2023-05-07T04:23:52;13.70;99.90
5723;DHT22;2886;49.722;8.612;2023-05-07T04:26:17;13.80;99.90
5723;DHT22;2886;49.722;8.612;2023-05-07T04:28:43;13.80;99.90
5723;DHT22;2886;49.722;8.612;2023-05-07T04:31:09;13.90;99.90
5723;DHT22;2886;49.722;8.612;2023-05-07T04:33:34;14.00;99.90
5723;DHT22;2886;49.722;8.612;2023-05-07T04:36:03;14.00;99.90
5723;DHT22;2886;49.722;8.612;2023-05-07T04:38:30;14.10;99.90
5723;DHT22;2886;49.722;8.612;2023-05-07T04:40:57;14.10;99.90
5723;DHT22;2886;49.722;8.612;2023-05-07T04:43:23;14.10;99.90
5723;DHT22;2886;49.722;8.612;2023-05-07T04:45:50;14.20;99.90
5723;DHT22;2886;49.722;8.612;2023-05-07T04:48:16;14.30;99.90
5723;DHT22;2886;49.722;8.612;2023-05-07T04:50:46;14.30;99.90
5723;DHT22;2886;49.722;8.612;2023-05-07T04:53:12;14.40;99.90
5723;DHT22;2886;49.722;8.612;2023-05-07T04:55:37;14.40;99.90
5723;DHT22;2886;49.722;8.612;2023-05-07T04:58:03;14.40;99.90
5723;DHT22;2886;49.722;8.612;2023-05-07T05:00:30;14.50;99.90
5723;DHT22;2886;49.722;8.612;2023-05-07T05:02:55;14.60;99.90
5723;DHT22;2886;49.722;8.612;2023-05-07T05:05:21;14.60;99.90
5723;DHT22;2886;49.722;8.612;2023-05-07T05:07:47;14.70;99.90
5723;DHT22;2886;49.722;8.612;2023-05-07T05:10:12;14.70;99.90
5723;DHT22;2886;49.722;8.612;2023-05-07T05:12:38;14.70;99.90
5723;DHT22;2886;49.722;8.612;2023-05-07T05:15:04;14.80;99.90
5723;DHT22;2886;49.722;8.612;2023-05-07T05:17:30;14.80;99.90
5723;DHT22;2886;49.722;8.612;2023-05-07T05:19:56;14.80;99.90
5723;DHT22;2886;49.722;8.612;2023-05-07T05:22:21;15.00;99.90
5723;DHT22;2886;49.722;8.612;2023-05-07T05:24:47;15.10;99.90
5723;DHT22;2886;49.722;8.612;2023-05-07T05:27:13;15.20;99.90
5723;DHT22;2886;49.722;8.612;2023-05-07T05:29:38;15.30;99.90
5723;DHT22;2886;49.722;8.612;2023-05-07T05:32:04;15.40;99.90
5723;DHT22;2886;49.722;8.612;2023-05-07T05:34:29;15.50;99.90
5723;DHT22;2886;49.722;8.612;2023-05-07T05:36:56;15.50;99.90
5723;DHT22;2886;49.722;8.612;2023-05-07T05:39:22;15.60;99.90
5723;DHT22;2886;49.722;8.612;2023-05-07T05:41:48;15.70;99.90
5723;DHT22;2886;49.722;8.612;2023-05-07T05:44:14;15.80;99.90
5723;DHT22;2886;49.722;8.612;2023-05-07T05:46:39;15.90;99.90
5723;DHT22;2886;49.722;8.612;2023-05-07T05:49:05;16.00;99.90
5723;DHT22;2886;49.722;8.612;2023-05-07T05:51:31;16.00;99.90
5723;DHT22;2886;49.722;8.612;2023-05-07T05:53:56;16.00;99.90
5723;DHT22;2886;49.722;8.612;2023-05-07T05:56:22;16.10;99.90
5723;DHT22;2886;49.722;8.612;2023-05-07T05:58:47;16.10;99.90
5723;DHT22;2886;49.722;8.612;2023-05-07T06:01:13;16.20;99.90
5723;DHT22;2886;49.722;8.612;2023-05-07T06:03:38;16.30;99.90
5723;DHT22;2886;49.722;8.612;2023-05-07T06:06:04;16.30;99.90
5723;DHT22;2886;49.722;8.612;2023-05-07T06:08:30;16.40;99.90
5723;DHT22;2886;49.722;8.612;2023-05-07T06:10:56;16.60;99.90
5723;DHT22;2886;49.722;8.612;2023-05-07T06:13:22;16.50;99.90
5723;DHT22;2886;49.722;8.612;2023-05-07T06:15:49;16.50;99.90
5723;DHT22;2886;49.722;8.612;2023-05-07T06:18:14;16.50;99.90
5723;DHT22;2886;49.722;8.612;2023-05-07T06:20:40;16.40;99.90
5723;DHT22;2886;49.722;8.612;2023-05-07T06:23:05;16.50;99.90
5723;DHT22;2886;49.722;8.612;2023-05-07T06:25:31;16.40;99.90
5723;DHT22;2886;49.722;8.612;2023-05-07T06:27:57;16.60;99.90
5723;DHT22;2886;49.722;8.612;2023-05-07T06:30:22;16.60;99.90
5723;DHT22;2886;49.722;8.612;2023-05-07T06:32:48;16.70;99.90
5723;DHT22;2886;49.722;8.612;2023-05-07T06:35:13;16.80;99.90
5723;DHT22;2886;49.722;8.612;2023-05-07T06:37:41;16.80;99.90
5723;DHT22;2886;49.722;8.612;2023-05-07T06:40:08;16.80;99.90
5723;DHT22;2886;49.722;8.612;2023-05-07T06:42:35;17.00;99.90
5723;DHT22;2886;49.722;8.612;2023-05-07T06:45:01;17.10;99.90
5723;DHT22;2886;49.722;8.612;2023-05-07T06:47:26;17.20;99.90
5723;DHT22;2886;49.722;8.612;2023-05-07T06:49:52;17.30;99.90
5723;DHT22;2886;49.722;8.612;2023-05-07T06:52:17;17.30;99.90
5723;DHT22;2886;49.722;8.612;2023-05-07T06:54:43;17.40;99.90
5723;DHT22;2886;49.722;8.612;2023-05-07T06:57:08;17.50;99.90
5723;DHT22;2886;49.722;8.612;2023-05-07T06:59:34;17.60;99.90
5723;DHT22;2886;49.722;8.612;2023-05-07T07:02:00;17.70;99.90
5723;DHT22;2886;49.722;8.612;2023-05-07T07:04:25;17.80;99.90
5723;DHT22;2886;49.722;8.612;2023-05-07T07:06:53;17.90;99.90
5723;DHT22;2886;49.722;8.612;2023-05-07T07:09:18;18.20;99.90
5723;DHT22;2886;49.722;8.612;2023-05-07T07:11:44;18.30;99.90
5723;DHT22;2886;49.722;8.612;2023-05-07T07:14:10;18.40;99.90
5723;DHT22;2886;49.722;8.612;2023-05-07T07:16:35;18.50;99.90
5723;DHT22;2886;49.722;8.612;2023-05-07T07:19:01;18.60;99.90
5723;DHT22;2886;49.722;8.612;2023-05-07T07:21:26;18.50;99.90
5723;DHT22;2886;49.722;8.612;2023-05-07T07:23:52;18.50;99.90
5723;DHT22;2886;49.722;8.612;2023-05-07T07:26:17;18.50;99.90
5723;DHT22;2886;49.722;8.612;2023-05-07T07:28:44;18.60;99.90
5723;DHT22;2886;49.722;8.612;2023-05-07T07:31:10;18.70;99.90
5723;DHT22;2886;49.722;8.612;2023-05-07T07:33:36;18.70;99.90
5723;DHT22;2886;49.722;8.612;2023-05-07T07:36:02;18.80;99.90
5723;DHT22;2886;49.722;8.612;2023-05-07T07:38:28;18.70;99.90
5723;DHT22;2886;49.722;8.612;2023-05-07T07:40:53;18.70;99.90
5723;DHT22;2886;49.722;8.612;2023-05-07T07:43:19;18.80;99.90
5723;DHT22;2886;49.722;8.612;2023-05-07T07:45:44;19.00;99.90
5723;DHT22;2886;49.722;8.612;2023-05-07T07:48:11;19.10;99.90
5723;DHT22;2886;49.722;8.612;2023-05-07T07:50:37;19.00;99.90
5723;DHT22;2886;49.722;8.612;2023-05-07T07:53:03;19.10;99.90
5723;DHT22;2886;49.722;8.612;2023-05-07T07:55:28;19.30;99.90
5723;DHT22;2886;49.722;8.612;2023-05-07T07:57:54;19.40;99.90
5723;DHT22;2886;49.722;8.612;2023-05-07T08:00:20;19.40;99.90
5723;DHT22;2886;49.722;8.612;2023-05-07T08:02:45;19.40;99.90
5723;DHT22;2886;49.722;8.612;2023-05-07T08:05:11;19.60;99.90
5723;DHT22;2886;49.722;8.612;2023-05-07T08:07:37;19.80;99.90
5723;DHT22;2886;49.722;8.612;2023-05-07T08:10:02;19.90;99.90
5723;DHT22;2886;49.722;8.612;2023-05-07T08:12:28;20.00;99.90
5723;DHT22;2886;49.722;8.612;2023-05-07T08:14:54;20.20;99.90
5723;DHT22;2886;49.722;8.612;2023-05-07T08:17:20;20.30;99.90
5723;DHT22;2886;49.722;8.612;2023-05-07T08:19:47;20.50;99.90
5723;DHT22;2886;49.722;8.612;2023-05-07T08:22:13;20.60;99.90
5723;DHT22;2886;49.722;8.612;2023-05-07T08:24:39;20.80;99.90
5723;DHT22;2886;49.722;8.612;2023-05-07T08:27:05;21.00;99.70
5723;DHT22;2886;49.722;8.612;2023-05-07T08:29:31;21.10;99.10
5723;DHT22;2886;49.722;8.612;2023-05-07T08:31:56;21.20;98.40
5723;DHT22;2886;49.722;8.612;2023-05-07T08:34:22;21.40;97.50
5723;DHT22;2886;49.722;8.612;2023-05-07T08:36:48;21.50;97.00
5723;DHT22;2886;49.722;8.612;2023-05-07T08:39:15;21.60;96.90
5723;DHT22;2886;49.722;8.612;2023-05-07T08:41:44;21.80;95.90
5723;DHT22;2886;49.722;8.612;2023-05-07T08:44:12;22.00;93.50
5723;DHT22;2886;49.722;8.612;2023-05-07T08:46:39;22.20;91.40
5723;DHT22;2886;49.722;8.612;2023-05-07T08:49:07;22.30;91.40
5723;DHT22;2886;49.722;8.612;2023-05-07T08:51:33;22.40;91.10
5723;DHT22;2886;49.722;8.612;2023-05-07T08:53:59;22.70;86.60
5723;DHT22;2886;49.722;8.612;2023-05-07T08:56:26;22.80;82.70
5723;DHT22;2886;49.722;8.612;2023-05-07T08:58:52;22.90;79.90
5723;DHT22;2886;49.722;8.612;2023-05-07T09:01:21;22.90;80.70
5723;DHT22;2886;49.722;8.612;2023-05-07T09:03:47;23.00;76.10
5723;DHT22;2886;49.722;8.612;2023-05-07T09:06:13;23.10;75.30
5723;DHT22;2886;49.722;8.612;2023-05-07T09:08:40;23.20;72.20
5723;DHT22;2886;49.722;8.612;2023-05-07T09:11:05;23.20;69.50
5723;DHT22;2886;49.722;8.612;2023-05-07T09:13:31;23.40;69.20
5723;DHT22;2886;49.722;8.612;2023-05-07T09:15:56;23.50;66.20
5723;DHT22;2886;49.722;8.612;2023-05-07T09:18:25;23.60;69.70
5723;DHT22;2886;49.722;8.612;2023-05-07T09:20:51;23.90;66.90
5723;DHT22;2886;49.722;8.612;2023-05-07T09:23:16;24.20;65.40
5723;DHT22;2886;49.722;8.612;2023-05-07T09:25:42;24.60;62.80
5723;DHT22;2886;49.722;8.612;2023-05-07T09:28:08;24.80;61.80
5723;DHT22;2886;49.722;8.612;2023-05-07T09:30:35;25.20;61.20
5723;DHT22;2886;49.722;8.612;2023-05-07T09:33:03;25.50;60.10
5723;DHT22;2886;49.722;8.612;2023-05-07T09:35:29;25.40;56.80
5723;DHT22;2886;49.722;8.612;2023-05-07T09:37:58;24.90;58.50
5723;DHT22;2886;49.722;8.612;2023-05-07T09:40:29;24.20;60.60
5723;DHT22;2886;49.722;8.612;2023-05-07T09:42:55;23.90;61.50
5723;DHT22;2886;49.722;8.612;2023-05-07T09:45:29;23.60;62.30
5723;DHT22;2886;49.722;8.612;2023-05-07T09:47:56;23.80;62.20
5723;DHT22;2886;49.722;8.612;2023-05-07T09:50:31;23.90;61.10
5723;DHT22;2886;49.722;8.612;2023-05-07T09:52:58;23.60;62.20
5723;DHT22;2886;49.722;8.612;2023-05-07T09:55:24;23.20;61.90
5723;DHT22;2886;49.722;8.612;2023-05-07T09:57:51;22.80;64.20
5723;DHT22;2886;49.722;8.612;2023-05-07T10:00:19;22.80;65.00
5723;DHT22;2886;49.722;8.612;2023-05-07T10:02:51;22.90;64.80
5723;DHT22;2886;49.722;8.612;2023-05-07T10:05:21;23.00;65.30
5723;DHT22;2886;49.722;8.612;2023-05-07T10:07:47;23.30;63.50
5723;DHT22;2886;49.722;8.612;2023-05-07T10:10:14;23.20;63.30
5723;DHT22;2886;49.722;8.612;2023-05-07T10:12:41;23.20;63.70
5723;DHT22;2886;49.722;8.612;2023-05-07T10:15:09;23.40;62.90
5723;DHT22;2886;49.722;8.612;2023-05-07T10:17:36;23.40;63.30
5723;DHT22;2886;49.722;8.612;2023-05-07T10:20:04;23.60;62.70
5723;DHT22;2886;49.722;8.612;2023-05-07T10:22:39;23.60;61.90
5723;DHT22;2886;49.722;8.612;2023-05-07T10:25:15;23.80;61.70
5723;DHT22;2886;49.722;8.612;2023-05-07T10:27:43;23.60;59.70
5723;DHT22;2886;49.722;8.612;2023-05-07T10:33:05;23.40;61.90
5723;DHT22;2886;49.722;8.612;2023-05-07T10:35:37;23.40;63.00
5723;DHT22;2886;49.722;8.612;2023-05-07T10:38:04;23.60;59.30
5723;DHT22;2886;49.722;8.612;2023-05-07T10:40:31;23.90;58.70
5723;DHT22;2886;49.722;8.612;2023-05-07T10:43:01;24.40;58.80
5723;DHT22;2886;49.722;8.612;2023-05-07T10:45:28;25.00;56.40
5723;DHT22;2886;49.722;8.612;2023-05-07T10:48:15;25.50;53.00
5723;DHT22;2886;49.722;8.612;2023-05-07T10:50:44;25.90;50.60
5723;DHT22;2886;49.722;8.612;2023-05-07T10:55:44;25.40;47.60
5723;DHT22;2886;49.722;8.612;2023-05-07T11:00:48;25.20;47.50
5723;DHT22;2886;49.722;8.612;2023-05-07T11:03:14;25.00;47.90
5723;DHT22;2886;49.722;8.612;2023-05-07T11:05:41;25.10;49.70
5723;DHT22;2886;49.722;8.612;2023-05-07T11:08:08;25.40;48.00
5723;DHT22;2886;49.722;8.612;2023-05-07T11:10:54;25.60;48.50
5723;DHT22;2886;49.722;8.612;2023-05-07T11:16:23;25.20;49.50
5723;DHT22;2886;49.722;8.612;2023-05-07T11:18:51;25.20;48.30
5723;DHT22;2886;49.722;8.612;2023-05-07T11:21:36;25.30;49.30
5723;DHT22;2886;49.722;8.612;2023-05-07T11:24:09;25.00;48.80
5723;DHT22;2886;49.722;8.612;2023-05-07T11:27:01;24.60;48.80
5723;DHT22;2886;49.722;8.612;2023-05-07T11:29:27;24.60;49.80
5723;DHT22;2886;49.722;8.612;2023-05-07T11:31:54;24.60;50.40
5723;DHT22;2886;49.722;8.612;2023-05-07T11:34:25;24.70;50.60
5723;DHT22;2886;49.722;8.612;2023-05-07T11:36:52;24.70;51.40
5723;DHT22;2886;49.722;8.612;2023-05-07T11:39:29;24.80;51.80
5723;DHT22;2886;49.722;8.612;2023-05-07T11:41:55;25.00;51.30
5723;DHT22;2886;49.722;8.612;2023-05-07T11:44:21;25.40;49.10
5723;DHT22;2886;49.722;8.612;2023-05-07T11:46:47;25.70;48.20
5723;DHT22;2886;49.722;8.612;2023-05-07T11:49:13;26.00;47.70
5723;DHT22;2886;49.722;8.612;2023-05-07T11:51:39;26.10;48.60
5723;DHT22;2886;49.722;8.612;2023-05-07T11:54:06;26.40;47.10
5723;DHT22;2886;49.722;8.612;2023-05-07T11:56:36;26.80;46.90
5723;DHT22;2886;49.722;8.612;2023-05-07T11:59:02;27.00;45.20
5723;DHT22;2886;49.722;8.612;2023-05-07T12:01:28;27.20;45.50
5723;DHT22;2886;49.722;8.612;2023-05-07T12:03:53;27.30;45.60
5723;DHT22;2886;49.722;8.612;2023-05-07T12:06:19;27.30;44.30
5723;DHT22;2886;49.722;8.612;2023-05-07T12:08:45;27.30;43.60
5723;DHT22;2886;49.722;8.612;2023-05-07T12:11:37;27.00;44.60
5723;DHT22;2886;49.722;8.612;2023-05-07T12:14:05;26.60;44.90
5723;DHT22;2886;49.722;8.612;2023-05-07T12:16:30;26.50;45.50
5723;DHT22;2886;49.722;8.612;2023-05-07T12:18:56;26.60;43.60
5723;DHT22;2886;49.722;8.612;2023-05-07T12:21:24;26.90;43.80
5723;DHT22;2886;49.722;8.612;2023-05-07T12:23:50;27.20;43.00
5723;DHT22;2886;49.722;8.612;2023-05-07T12:26:16;27.60;41.90
5723;DHT22;2886;49.722;8.612;2023-05-07T12:28:42;27.90;41.10
5723;DHT22;2886;49.722;8.612;2023-05-07T12:31:07;28.10;40.80
5723;DHT22;2886;49.722;8.612;2023-05-07T12:33:34;27.80;40.60
5723;DHT22;2886;49.722;8.612;2023-05-07T12:36:04;27.40;41.70
5723;DHT22;2886;49.722;8.612;2023-05-07T12:38:38;27.50;41.50
5723;DHT22;2886;49.722;8.612;2023-05-07T12:41:05;27.50;41.00
5723;DHT22;2886;49.722;8.612;2023-05-07T12:43:32;27.70;39.60
5723;DHT22;2886;49.722;8.612;2023-05-07T12:46:01;27.80;39.80
5723;DHT22;2886;49.722;8.612;2023-05-07T12:48:27;28.00;39.40
5723;DHT22;2886;49.722;8.612;2023-05-07T12:50:53;28.00;39.80
5723;DHT22;2886;49.722;8.612;2023-05-07T12:53:23;27.80;39.10
5723;DHT22;2886;49.722;8.612;2023-05-07T12:55:55;27.70;39.40
5723;DHT22;2886;49.722;8.612;2023-05-07T12:58:27;27.60;38.50
5723;DHT22;2886;49.722;8.612;2023-05-07T13:00:54;27.10;41.50
5723;DHT22;2886;49.722;8.612;2023-05-07T13:03:31;26.60;40.20
5723;DHT22;2886;49.722;8.612;2023-05-07T13:06:04;26.40;40.10
5723;DHT22;2886;49.722;8.612;2023-05-07T13:08:33;26.40;40.70
5723;DHT22;2886;49.722;8.612;2023-05-07T13:11:00;26.50;41.70
5723;DHT22;2886;49.722;8.612;2023-05-07T13:13:33;26.60;41.50
5723;DHT22;2886;49.722;8.612;2023-05-07T13:16:00;26.60;41.20
5723;DHT22;2886;49.722;8.612;2023-05-07T13:18:26;26.40;41.60
5723;DHT22;2886;49.722;8.612;2023-05-07T13:20:53;26.40;41.50
5723;DHT22;2886;49.722;8.612;2023-05-07T13:23:19;26.40;42.50
5723;DHT22;2886;49.722;8.612;2023-05-07T13:25:45;26.50;42.10
5723;DHT22;2886;49.722;8.612;2023-05-07T13:28:11;26.20;43.00
5723;DHT22;2886;49.722;8.612;2023-05-07T13:30:36;26.20;43.40
5723;DHT22;2886;49.722;8.612;2023-05-07T13:33:02;26.20;43.00
5723;DHT22;2886;49.722;8.612;2023-05-07T13:35:28;26.00;42.90
5723;DHT22;2886;49.722;8.612;2023-05-07T13:37:53;25.90;43.50
5723;DHT22;2886;49.722;8.612;2023-05-07T13:40:21;25.80;43.10
5723;DHT22;2886;49.722;8.612;2023-05-07T13:42:47;25.60;43.40
5723;DHT22;2886;49.722;8.612;2023-05-07T13:45:13;25.30;44.70
5723;DHT22;2886;49.722;8.612;2023-05-07T13:47:40;25.20;45.20
5723;DHT22;2886;49.722;8.612;2023-05-07T13:50:07;25.00;45.80
5723;DHT22;2886;49.722;8.612;2023-05-07T13:52:33;25.00;46.20
5723;DHT22;2886;49.722;8.612;2023-05-07T13:54:59;25.20;45.80
5723;DHT22;2886;49.722;8.612;2023-05-07T13:57:25;25.20;45.70
5723;DHT22;2886;49.722;8.612;2023-05-07T13:59:50;25.30;45.00
5723;DHT22;2886;49.722;8.612;2023-05-07T14:02:16;25.50;44.80
5723;DHT22;2886;49.722;8.612;2023-05-07T14:04:41;25.30;45.40
5723;DHT22;2886;49.722;8.612;2023-05-07T14:07:07;25.20;45.80
5723;DHT22;2886;49.722;8.612;2023-05-07T14:09:33;24.90;46.60
5723;DHT22;2886;49.722;8.612;2023-05-07T14:11:58;24.70;46.90
5723;DHT22;2886;49.722;8.612;2023-05-07T14:14:24;24.60;47.20
5723;DHT22;2886;49.722;8.612;2023-05-07T14:16:50;24.60;47.30
5723;DHT22;2886;49.722;8.612;2023-05-07T14:19:16;24.60;47.10
5723;DHT22;2886;49.722;8.612;2023-05-07T14:21:41;24.70;47.00
5723;DHT22;2886;49.722;8.612;2023-05-07T14:24:07;24.70;47.20
5723;DHT22;2886;49.722;8.612;2023-05-07T14:26:36;24.60;47.30
5723;DHT22;2886;49.722;8.612;2023-05-07T14:29:02;24.50;47.60
5723;DHT22;2886;49.722;8.612;2023-05-07T14:31:28;24.30;47.90
5723;DHT22;2886;49.722;8.612;2023-05-07T14:33:54;24.20;47.70
5723;DHT22;2886;49.722;8.612;2023-05-07T14:36:20;24.10;48.80
5723;DHT22;2886;49.722;8.612;2023-05-07T14:38:48;24.00;48.60
5723;DHT22;2886;49.722;8.612;2023-05-07T14:41:13;23.90;49.50
5723;DHT22;2886;49.722;8.612;2023-05-07T14:43:40;24.00;48.80
5723;DHT22;2886;49.722;8.612;2023-05-07T14:46:05;23.90;49.30
5723;DHT22;2886;49.722;8.612;2023-05-07T14:48:31;23.90;49.80
5723;DHT22;2886;49.722;8.612;2023-05-07T14:50:57;23.90;49.20
5723;DHT22;2886;49.722;8.612;2023-05-07T14:53:23;23.80;49.50
5723;DHT22;2886;49.722;8.612;2023-05-07T14:55:49;23.80;49.90
5723;DHT22;2886;49.722;8.612;2023-05-07T14:58:14;23.70;50.60
5723;DHT22;2886;49.722;8.612;2023-05-07T15:00:40;23.70;50.90
5723;DHT22;2886;49.722;8.612;2023-05-07T15:03:09;23.70;50.90
5723;DHT22;2886;49.722;8.612;2023-05-07T15:05:36;23.60;51.30
5723;DHT22;2886;49.722;8.612;2023-05-07T15:08:02;23.50;50.90
5723;DHT22;2886;49.722;8.612;2023-05-07T15:10:27;23.40;52.10
5723;DHT22;2886;49.722;8.612;2023-05-07T15:12:53;23.30;54.40
5723;DHT22;2886;49.722;8.612;2023-05-07T15:15:19;23.20;55.20
5723;DHT22;2886;49.722;8.612;2023-05-07T15:17:45;23.00;59.60
5723;DHT22;2886;49.722;8.612;2023-05-07T15:20:10;22.70;59.80
5723;DHT22;2886;49.722;8.612;2023-05-07T15:22:36;22.50;63.60
5723;DHT22;2886;49.722;8.612;2023-05-07T15:25:03;22.00;75.10
5723;DHT22;2886;49.722;8.612;2023-05-07T15:27:30;21.60;91.10
5723;DHT22;2886;49.722;8.612;2023-05-07T15:29:57;20.70;99.90
5723;DHT22;2886;49.722;8.612;2023-05-07T15:32:22;20.10;99.90
5723;DHT22;2886;49.722;8.612;2023-05-07T15:34:48;19.60;99.90
5723;DHT22;2886;49.722;8.612;2023-05-07T15:37:14;19.10;99.90
5723;DHT22;2886;49.722;8.612;2023-05-07T15:39:39;18.90;99.90
5723;DHT22;2886;49.722;8.612;2023-05-07T15:42:05;18.70;99.90
5723;DHT22;2886;49.722;8.612;2023-05-07T15:44:30;18.60;99.90
5723;DHT22;2886;49.722;8.612;2023-05-07T15:46:58;18.40;99.90
5723;DHT22;2886;49.722;8.612;2023-05-07T15:49:25;18.20;99.90
5723;DHT22;2886;49.722;8.612;2023-05-07T15:51:50;18.10;99.90
5723;DHT22;2886;49.722;8.612;2023-05-07T15:54:16;17.80;99.90
5723;DHT22;2886;49.722;8.612;2023-05-07T15:56:45;17.60;99.90
5723;DHT22;2886;49.722;8.612;2023-05-07T15:59:11;17.50;99.90
5723;DHT22;2886;49.722;8.612;2023-05-07T16:01:37;17.50;99.90
5723;DHT22;2886;49.722;8.612;2023-05-07T16:04:07;17.50;99.90
5723;DHT22;2886;49.722;8.612;2023-05-07T16:06:34;17.50;99.90
5723;DHT22;2886;49.722;8.612;2023-05-07T16:09:00;17.50;99.90